sensor_id;sensor_type;location;lat;lon;timestamp;temperature;humidity
1025;DHT22;501;48.214;11.350;2023-04-24T00:01:51;12.30;65.60
1025;DHT22;501;48.214;11.350;2023-04-24T00:04:17;12.30;65.10
1025;DHT22;501;48.214;11.350;2023-04-24T00:06:43;12.30;65.30
1025;DHT22;501;48.214;11.350;2023-04-24T00:09:09;12.40;66.20
1025;DHT22;501;48.214;11.350;2023-04-24T00:11:35;12.40;65.60
1025;DHT22;501;48.214;11.350;2023-04-24T00:14:01;12.40;65.00
1025;DHT22;501;48.214;11.350;2023-04-24T00:16:27;12.40;64.00
1025;DHT22;501;48.214;11.350;2023-04-24T00:18:53;12.30;63.90
1025;DHT22;501;48.214;11.350;2023-04-24T00:21:19;12.40;64.30
1025;DHT22;501;48.214;11.350;2023-04-24T00:23:45;12.30;63.80
1025;DHT22;501;48.214;11.350;2023-04-24T00:26:11;12.30;62.90
1025;DHT22;501;48.214;11.350;2023-04-24T00:28:37;12.30;63.10
1025;DHT22;501;48.214;11.350;2023-04-24T00:31:02;12.20;63.50
1025;DHT22;501;48.214;11.350;2023-04-24T00:33:28;12.20;63.30
1025;DHT22;501;48.214;11.350;2023-04-24T00:35:54;12.20;63.70
1025;DHT22;501;48.214;11.350;2023-04-24T00:38:19;12.20;64.10
1025;DHT22;501;48.214;11.350;2023-04-24T00:40:45;12.10;63.00
1025;DHT22;501;48.214;11.350;2023-04-24T00:43:11;12.10;63.50
1025;DHT22;501;48.214;11.350;2023-04-24T00:45:37;12.10;63.50
1025;DHT22;501;48.214;11.350;2023-04-24T00:48:02;12.00;63.30
1025;DHT22;501;48.214;11.350;2023-04-24T00:50:29;12.00;63.50
1025;DHT22;501;48.214;11.350;2023-04-24T00:52:56;12.10;63.40
1025;DHT22;501;48.214;11.350;2023-04-24T00:55:21;12.10;63.80
1025;DHT22;501;48.214;11.350;2023-04-24T00:57:47;12.10;63.70
1025;DHT22;501;48.214;11.350;2023-04-24T01:00:15;12.10;63.20
1025;DHT22;501;48.214;11.350;2023-04-24T01:02:41;12.10;62.70
1025;DHT22;501;48.214;11.350;2023-04-24T01:05:16;12.10;60.90
1025;DHT22;501;48.214;11.350;2023-04-24T01:07:45;12.00;59.50
1025;DHT22;501;48.214;11.350;2023-04-24T01:10:11;11.90;60.20
1025;DHT22;501;48.214;11.350;2023-04-24T01:12:38;11.90;60.00
1025;DHT22;501;48.214;11.350;2023-04-24T01:15:04;11.90;59.60
1025;DHT22;501;48.214;11.350;2023-04-24T01:17:32;11.80;60.70
1025;DHT22;501;48.214;11.350;2023-04-24T01:19:58;11.70;60.50
1025;DHT22;501;48.214;11.350;2023-04-24T01:22:25;11.60;60.00
1025;DHT22;501;48.214;11.350;2023-04-24T01:24:52;11.50;59.60
1025;DHT22;501;48.214;11.350;2023-04-24T01:27:19;11.50;59.70
1025;DHT22;501;48.214;11.350;2023-04-24T01:29:45;11.50;60.50
1025;DHT22;501;48.214;11.350;2023-04-24T01:32:13;11.40;60.10
1025;DHT22;501;48.214;11.350;2023-04-24T01:34:40;11.40;59.70
1025;DHT22;501;48.214;11.350;2023-04-24T01:37:06;11.30;59.80
1025;DHT22;501;48.214;11.350;2023-04-24T01:39:32;11.30;60.30
1025;DHT22;501;48.214;11.350;2023-04-24T01:41:59;11.20;60.80
1025;DHT22;501;48.214;11.350;2023-04-24T01:44:25;11.20;61.90
1025;DHT22;501;48.214;11.350;2023-04-24T01:46:51;11.20;60.70
1025;DHT22;501;48.214;11.350;2023-04-24T01:49:19;11.20;61.90
1025;DHT22;501;48.214;11.350;2023-04-24T01:51:45;11.20;61.60
1025;DHT22;501;48.214;11.350;2023-04-24T01:54:11;11.20;61.10
1025;DHT22;501;48.214;11.350;2023-04-24T01:56:42;11.10;61.10
1025;DHT22;501;48.214;11.350;2023-04-24T01:59:10;11.10;61.00
1025;DHT22;501;48.214;11.350;2023-04-24T02:01:37;11.10;62.70
1025;DHT22;501;48.214;11.350;2023-04-24T02:04:04;11.10;62.30
1025;DHT22;501;48.214;11.350;2023-04-24T02:06:30;11.10;62.30
1025;DHT22;501;48.214;11.350;2023-04-24T02:08:58;11.10;60.70
1025;DHT22;501;48.214;11.350;2023-04-24T02:11:24;11.10;62.40
1025;DHT22;501;48.214;11.350;2023-04-24T02:13:50;11.10;62.40
1025;DHT22;501;48.214;11.350;2023-04-24T02:16:16;11.10;62.40
1025;DHT22;501;48.214;11.350;2023-04-24T02:18:42;11.00;60.60
1025;DHT22;501;48.214;11.350;2023-04-24T02:21:08;11.00;61.80
1025;DHT22;501;48.214;11.350;2023-04-24T02:23:33;10.90;62.60
1025;DHT22;501;48.214;11.350;2023-04-24T02:25:59;10.90;62.10
1025;DHT22;501;48.214;11.350;2023-04-24T02:28:24;10.90;63.20
1025;DHT22;501;48.214;11.350;2023-04-24T02:30:50;11.00;64.50
1025;DHT22;501;48.214;11.350;2023-04-24T02:33:16;11.00;63.20
1025;DHT22;501;48.214;11.350;2023-04-24T02:35:42;11.00;61.30
1025;DHT22;501;48.214;11.350;2023-04-24T02:38:07;11.10;62.20
1025;DHT22;501;48.214;11.350;2023-04-24T02:40:33;11.10;62.90
1025;DHT22;501;48.214;11.350;2023-04-24T02:42:59;11.10;61.90
1025;DHT22;501;48.214;11.350;2023-04-24T02:45:24;11.10;61.20
1025;DHT22;501;48.214;11.350;2023-04-24T02:47:50;11.00;61.90
1025;DHT22;501;48.214;11.350;2023-04-24T02:50:15;11.10;62.60
1025;DHT22;501;48.214;11.350;2023-04-24T02:52:41;11.00;61.70
1025;DHT22;501;48.214;11.350;2023-04-24T02:55:07;11.00;62.90
1025;DHT22;501;48.214;11.350;2023-04-24T02:57:33;11.00;62.60
1025;DHT22;501;48.214;11.350;2023-04-24T02:59:59;11.10;64.00
1025;DHT22;501;48.214;11.350;2023-04-24T03:02:25;11.10;64.10
1025;DHT22;501;48.214;11.350;2023-04-24T03:04:50;11.00;64.50
1025;DHT22;501;48.214;11.350;2023-04-24T03:07:16;11.10;64.20
1025;DHT22;501;48.214;11.350;2023-04-24T03:09:42;11.10;63.70
1025;DHT22;501;48.214;11.350;2023-04-24T03:12:07;11.00;65.60
1025;DHT22;501;48.214;11.350;2023-04-24T03:14:33;11.00;65.50
1025;DHT22;501;48.214;11.350;2023-04-24T03:16:58;11.00;65.00
1025;DHT22;501;48.214;11.350;2023-04-24T03:19:25;10.90;65.40
1025;DHT22;501;48.214;11.350;2023-04-24T03:21:50;10.90;66.00
1025;DHT22;501;48.214;11.350;2023-04-24T03:24:16;10.80;66.40
1025;DHT22;501;48.214;11.350;2023-04-24T03:26:41;10.80;66.80
1025;DHT22;501;48.214;11.350;2023-04-24T03:29:07;10.80;66.70
1025;DHT22;501;48.214;11.350;2023-04-24T03:31:33;10.70;67.70
1025;DHT22;501;48.214;11.350;2023-04-24T03:33:58;10.70;69.30
1025;DHT22;501;48.214;11.350;2023-04-24T03:36:24;10.80;69.70
1025;DHT22;501;48.214;11.350;2023-04-24T03:38:51;10.70;67.90
1025;DHT22;501;48.214;11.350;2023-04-24T03:41:16;10.80;68.70
1025;DHT22;501;48.214;11.350;2023-04-24T03:43:42;10.80;66.80
1025;DHT22;501;48.214;11.350;2023-04-24T03:46:08;10.80;68.40
1025;DHT22;501;48.214;11.350;2023-04-24T03:48:34;10.80;69.00
1025;DHT22;501;48.214;11.350;2023-04-24T03:51:00;10.80;68.50
1025;DHT22;501;48.214;11.350;2023-04-24T03:53:26;10.90;68.50
1025;DHT22;501;48.214;11.350;2023-04-24T03:55:52;10.90;69.30
1025;DHT22;501;48.214;11.350;2023-04-24T03:58:18;10.90;69.80
1025;DHT22;501;48.214;11.350;2023-04-24T04:00:44;11.00;69.30
1025;DHT22;501;48.214;11.350;2023-04-24T04:03:11;11.00;69.20
1025;DHT22;501;48.214;11.350;2023-04-24T04:05:38;11.00;67.30
1025;DHT22;501;48.214;11.350;2023-04-24T04:08:04;11.00;67.00
1025;DHT22;501;48.214;11.350;2023-04-24T04:10:29;11.00;66.90
1025;DHT22;501;48.214;11.350;2023-04-24T04:12:55;11.00;67.20
1025;DHT22;501;48.214;11.350;2023-04-24T04:15:20;11.00;65.70
1025;DHT22;501;48.214;11.350;2023-04-24T04:17:46;11.00;65.10
1025;DHT22;501;48.214;11.350;2023-04-24T04:20:12;11.00;64.90
1025;DHT22;501;48.214;11.350;2023-04-24T04:22:38;11.00;64.90
1025;DHT22;501;48.214;11.350;2023-04-24T04:25:05;10.90;65.30
1025;DHT22;501;48.214;11.350;2023-04-24T04:27:30;10.80;65.90
1025;DHT22;501;48.214;11.350;2023-04-24T04:30:01;10.90;66.90
1025;DHT22;501;48.214;11.350;2023-04-24T04:32:33;10.90;66.60
1025;DHT22;501;48.214;11.350;2023-04-24T04:34:59;10.80;66.70
1025;DHT22;501;48.214;11.350;2023-04-24T04:37:32;10.80;66.60
1025;DHT22;501;48.214;11.350;2023-04-24T04:39:59;10.80;66.40
1025;DHT22;501;48.214;11.350;2023-04-24T04:42:25;10.80;65.60
1025;DHT22;501;48.214;11.350;2023-04-24T04:44:52;10.80;65.70
1025;DHT22;501;48.214;11.350;2023-04-24T04:47:18;10.80;65.20
1025;DHT22;501;48.214;11.350;2023-04-24T04:49:47;10.80;65.60
1025;DHT22;501;48.214;11.350;2023-04-24T04:52:13;10.80;65.20
1025;DHT22;501;48.214;11.350;2023-04-24T04:54:39;10.70;64.40
1025;DHT22;501;48.214;11.350;2023-04-24T04:57:05;10.70;65.60
1025;DHT22;501;48.214;11.350;2023-04-24T04:59:31;10.70;64.40
1025;DHT22;501;48.214;11.350;2023-04-24T05:01:56;10.70;65.40
1025;DHT22;501;48.214;11.350;2023-04-24T05:04:22;10.70;63.70
1025;DHT22;501;48.214;11.350;2023-04-24T05:06:48;10.60;64.40
1025;DHT22;501;48.214;11.350;2023-04-24T05:09:13;10.70;65.00
1025;DHT22;501;48.214;11.350;2023-04-24T05:11:39;10.70;64.70
1025;DHT22;501;48.214;11.350;2023-04-24T05:14:05;10.70;64.60
1025;DHT22;501;48.214;11.350;2023-04-24T05:16:30;10.70;63.60
1025;DHT22;501;48.214;11.350;2023-04-24T05:18:56;10.70;63.70
1025;DHT22;501;48.214;11.350;2023-04-24T05:21:22;10.80;64.70
1025;DHT22;501;48.214;11.350;2023-04-24T05:23:47;10.70;61.20
1025;DHT22;501;48.214;11.350;2023-04-24T05:26:13;10.70;62.90
1025;DHT22;501;48.214;11.350;2023-04-24T05:28:39;10.70;63.30
1025;DHT22;501;48.214;11.350;2023-04-24T05:31:06;10.80;64.50
1025;DHT22;501;48.214;11.350;2023-04-24T05:33:32;10.80;61.80
1025;DHT22;501;48.214;11.350;2023-04-24T05:35:57;10.80;62.80
1025;DHT22;501;48.214;11.350;2023-04-24T05:38:23;10.80;62.20
1025;DHT22;501;48.214;11.350;2023-04-24T05:40:49;10.80;62.80
1025;DHT22;501;48.214;11.350;2023-04-24T05:43:14;10.80;63.50
1025;DHT22;501;48.214;11.350;2023-04-24T05:45:40;10.80;62.70
1025;DHT22;501;48.214;11.350;2023-04-24T05:48:05;10.80;61.00
1025;DHT22;501;48.214;11.350;2023-04-24T05:50:31;10.90;62.70
1025;DHT22;501;48.214;11.350;2023-04-24T05:52:57;10.90;62.60
1025;DHT22;501;48.214;11.350;2023-04-24T05:55:27;11.00;62.30
1025;DHT22;501;48.214;11.350;2023-04-24T05:57:53;11.00;62.00
1025;DHT22;501;48.214;11.350;2023-04-24T06:00:19;11.10;60.60
1025;DHT22;501;48.214;11.350;2023-04-24T06:02:46;11.10;58.50
1025;DHT22;501;48.214;11.350;2023-04-24T06:05:11;11.10;59.20
1025;DHT22;501;48.214;11.350;2023-04-24T06:07:37;11.20;61.10
1025;DHT22;501;48.214;11.350;2023-04-24T06:10:03;11.20;60.50
1025;DHT22;501;48.214;11.350;2023-04-24T06:12:29;11.30;58.90
1025;DHT22;501;48.214;11.350;2023-04-24T06:14:55;11.30;60.30
1025;DHT22;501;48.214;11.350;2023-04-24T06:17:23;11.40;57.80
1025;DHT22;501;48.214;11.350;2023-04-24T06:19:49;11.40;57.80
1025;DHT22;501;48.214;11.350;2023-04-24T06:22:14;11.40;56.60
1025;DHT22;501;48.214;11.350;2023-04-24T06:24:40;11.40;56.10
1025;DHT22;501;48.214;11.350;2023-04-24T06:27:06;11.40;57.30
1025;DHT22;501;48.214;11.350;2023-04-24T06:29:33;11.50;57.40
1025;DHT22;501;48.214;11.350;2023-04-24T06:31:58;11.50;56.30
1025;DHT22;501;48.214;11.350;2023-04-24T06:34:24;11.50;57.30
1025;DHT22;501;48.214;11.350;2023-04-24T06:36:50;11.50;54.60
1025;DHT22;501;48.214;11.350;2023-04-24T06:39:15;11.50;53.60
1025;DHT22;501;48.214;11.350;2023-04-24T06:41:41;11.40;54.60
1025;DHT22;501;48.214;11.350;2023-04-24T06:44:07;11.40;55.10
1025;DHT22;501;48.214;11.350;2023-04-24T06:46:32;11.40;57.00
1025;DHT22;501;48.214;11.350;2023-04-24T06:48:58;11.50;57.50
1025;DHT22;501;48.214;11.350;2023-04-24T06:51:24;11.50;55.70
1025;DHT22;501;48.214;11.350;2023-04-24T06:53:52;11.60;54.30
1025;DHT22;501;48.214;11.350;2023-04-24T06:56:18;11.70;54.50
1025;DHT22;501;48.214;11.350;2023-04-24T06:58:44;11.70;53.30
1025;DHT22;501;48.214;11.350;2023-04-24T07:01:10;11.70;53.90
1025;DHT22;501;48.214;11.350;2023-04-24T07:03:36;11.80;54.50
1025;DHT22;501;48.214;11.350;2023-04-24T07:06:02;11.80;53.50
1025;DHT22;501;48.214;11.350;2023-04-24T07:08:29;12.00;53.50
1025;DHT22;501;48.214;11.350;2023-04-24T07:10:56;12.00;52.70
1025;DHT22;501;48.214;11.350;2023-04-24T07:13:22;12.00;50.80
1025;DHT22;501;48.214;11.350;2023-04-24T07:15:48;12.10;52.20
1025;DHT22;501;48.214;11.350;2023-04-24T07:18:19;12.20;52.30
1025;DHT22;501;48.214;11.350;2023-04-24T07:20:45;12.20;51.00
1025;DHT22;501;48.214;11.350;2023-04-24T07:23:11;12.20;49.70
1025;DHT22;501;48.214;11.350;2023-04-24T07:25:36;12.20;50.60
1025;DHT22;501;48.214;11.350;2023-04-24T07:28:02;12.10;47.80
1025;DHT22;501;48.214;11.350;2023-04-24T07:30:28;12.10;50.70
1025;DHT22;501;48.214;11.350;2023-04-24T07:32:54;12.10;50.60
1025;DHT22;501;48.214;11.350;2023-04-24T07:35:20;12.10;50.90
1025;DHT22;501;48.214;11.350;2023-04-24T07:37:46;12.10;49.10
1025;DHT22;501;48.214;11.350;2023-04-24T07:40:15;12.00;48.60
1025;DHT22;501;48.214;11.350;2023-04-24T07:42:41;12.00;50.80
1025;DHT22;501;48.214;11.350;2023-04-24T07:45:07;12.00;48.40
1025;DHT22;501;48.214;11.350;2023-04-24T07:47:33;12.10;50.90
1025;DHT22;501;48.214;11.350;2023-04-24T07:49:59;12.10;50.10
1025;DHT22;501;48.214;11.350;2023-04-24T07:52:25;12.20;52.00
1025;DHT22;501;48.214;11.350;2023-04-24T07:54:50;12.20;51.00
1025;DHT22;501;48.214;11.350;2023-04-24T07:57:18;12.20;48.00
1025;DHT22;501;48.214;11.350;2023-04-24T07:59:44;12.20;47.90
1025;DHT22;501;48.214;11.350;2023-04-24T08:02:09;12.20;47.30
1025;DHT22;501;48.214;11.350;2023-04-24T08:04:35;12.20;48.80
1025;DHT22;501;48.214;11.350;2023-04-24T08:07:00;12.20;47.70
1025;DHT22;501;48.214;11.350;2023-04-24T08:09:26;12.20;47.70
1025;DHT22;501;48.214;11.350;2023-04-24T08:11:52;12.10;45.30
1025;DHT22;501;48.214;11.350;2023-04-24T08:14:18;12.00;47.30
1025;DHT22;501;48.214;11.350;2023-04-24T08:16:44;12.00;48.60
1025;DHT22;501;48.214;11.350;2023-04-24T08:19:10;12.00;48.20
1025;DHT22;501;48.214;11.350;2023-04-24T08:21:35;12.00;48.90
1025;DHT22;501;48.214;11.350;2023-04-24T08:24:01;12.00;49.00
1025;DHT22;501;48.214;11.350;2023-04-24T08:26:30;11.80;47.70
1025;DHT22;501;48.214;11.350;2023-04-24T08:28:56;11.70;45.20
1025;DHT22;501;48.214;11.350;2023-04-24T08:31:21;11.70;46.30
1025;DHT22;501;48.214;11.350;2023-04-24T08:33:48;11.70;41.30
1025;DHT22;501;48.214;11.350;2023-04-24T08:36:13;11.60;41.40
1025;DHT22;501;48.214;11.350;2023-04-24T08:38:39;11.60;40.10
1025;DHT22;501;48.214;11.350;2023-04-24T08:41:05;11.60;40.80
1025;DHT22;501;48.214;11.350;2023-04-24T08:43:33;11.60;39.70
1025;DHT22;501;48.214;11.350;2023-04-24T08:46:03;11.70;38.60
1025;DHT22;501;48.214;11.350;2023-04-24T08:48:29;11.70;41.70
1025;DHT22;501;48.214;11.350;2023-04-24T08:50:56;11.80;39.00
1025;DHT22;501;48.214;11.350;2023-04-24T08:53:24;11.90;39.80
1025;DHT22;501;48.214;11.350;2023-04-24T08:55:51;11.90;38.60
1025;DHT22;501;48.214;11.350;2023-04-24T08:58:18;12.00;40.10
1025;DHT22;501;48.214;11.350;2023-04-24T09:00:44;12.00;38.00
1025;DHT22;501;48.214;11.350;2023-04-24T09:03:14;12.00;40.00
1025;DHT22;501;48.214;11.350;2023-04-24T09:05:42;12.10;39.30
1025;DHT22;501;48.214;11.350;2023-04-24T09:08:12;12.10;39.90
1025;DHT22;501;48.214;11.350;2023-04-24T09:10:39;12.20;39.70
1025;DHT22;501;48.214;11.350;2023-04-24T09:13:05;12.30;38.50
1025;DHT22;501;48.214;11.350;2023-04-24T09:15:34;12.30;38.50
1025;DHT22;501;48.214;11.350;2023-04-24T09:18:00;12.30;37.60
1025;DHT22;501;48.214;11.350;2023-04-24T09:20:27;12.40;38.60
1025;DHT22;501;48.214;11.350;2023-04-24T09:22:57;12.50;38.10
1025;DHT22;501;48.214;11.350;2023-04-24T09:25:31;12.50;37.10
1025;DHT22;501;48.214;11.350;2023-04-24T09:28:01;12.50;37.80
1025;DHT22;501;48.214;11.350;2023-04-24T09:30:27;12.60;35.80
1025;DHT22;501;48.214;11.350;2023-04-24T09:33:13;12.50;35.90
1025;DHT22;501;48.214;11.350;2023-04-24T09:35:50;12.50;36.10
1025;DHT22;501;48.214;11.350;2023-04-24T09:38:16;12.50;38.50
1025;DHT22;501;48.214;11.350;2023-04-24T09:40:42;12.60;35.70
1025;DHT22;501;48.214;11.350;2023-04-24T09:43:11;12.60;35.50
1025;DHT22;501;48.214;11.350;2023-04-24T09:45:37;12.70;37.10
1025;DHT22;501;48.214;11.350;2023-04-24T09:48:03;12.70;34.70
1025;DHT22;501;48.214;11.350;2023-04-24T09:50:32;12.80;36.00
1025;DHT22;501;48.214;11.350;2023-04-24T09:52:58;12.90;36.40
1025;DHT22;501;48.214;11.350;2023-04-24T09:55:25;13.00;36.20
1025;DHT22;501;48.214;11.350;2023-04-24T09:57:57;13.10;36.70
1025;DHT22;501;48.214;11.350;2023-04-24T10:00:31;13.20;36.60
1025;DHT22;501;48.214;11.350;2023-04-24T10:03:04;13.20;36.90
1025;DHT22;501;48.214;11.350;2023-04-24T10:05:34;13.30;36.70
1025;DHT22;501;48.214;11.350;2023-04-24T10:08:08;13.40;36.50
1025;DHT22;501;48.214;11.350;2023-04-24T10:10:41;13.40;36.60
1025;DHT22;501;48.214;11.350;2023-04-24T10:13:09;13.50;35.80
1025;DHT22;501;48.214;11.350;2023-04-24T10:15:36;13.50;35.40
1025;DHT22;501;48.214;11.350;2023-04-24T10:18:02;13.60;36.20
1025;DHT22;501;48.214;11.350;2023-04-24T10:20:30;13.60;38.00
1025;DHT22;501;48.214;11.350;2023-04-24T10:22:57;13.80;37.20
1025;DHT22;501;48.214;11.350;2023-04-24T10:25:28;13.90;34.60
1025;DHT22;501;48.214;11.350;2023-04-24T10:27:55;13.90;35.60
1025;DHT22;501;48.214;11.350;2023-04-24T10:30:26;14.00;35.10
1025;DHT22;501;48.214;11.350;2023-04-24T10:32:52;13.90;34.60
1025;DHT22;501;48.214;11.350;2023-04-24T10:35:19;13.80;37.50
1025;DHT22;501;48.214;11.350;2023-04-24T10:37:56;13.40;43.20
1025;DHT22;501;48.214;11.350;2023-04-24T10:40:27;12.70;43.50
1025;DHT22;501;48.214;11.350;2023-04-24T10:42:56;12.20;44.10
1025;DHT22;501;48.214;11.350;2023-04-24T10:45:22;11.90;48.90
1025;DHT22;501;48.214;11.350;2023-04-24T10:48:02;11.70;51.60
1025;DHT22;501;48.214;11.350;2023-04-24T10:50:30;11.50;52.90
1025;DHT22;501;48.214;11.350;2023-04-24T10:53:11;11.40;53.10
1025;DHT22;501;48.214;11.350;2023-04-24T10:58:09;11.40;58.70
1025;DHT22;501;48.214;11.350;2023-04-24T11:00:39;11.50;58.90
1025;DHT22;501;48.214;11.350;2023-04-24T11:03:08;11.60;59.00
1025;DHT22;501;48.214;11.350;2023-04-24T11:05:57;11.80;56.00
1025;DHT22;501;48.214;11.350;2023-04-24T11:19:02;12.20;46.30
1025;DHT22;501;48.214;11.350;2023-04-24T11:21:38;12.10;46.50
1025;DHT22;501;48.214;11.350;2023-04-24T11:26:55;12.20;44.50
1025;DHT22;501;48.214;11.350;2023-04-24T11:29:22;12.30;44.20
1025;DHT22;501;48.214;11.350;2023-04-24T11:31:48;12.30;45.60
1025;DHT22;501;48.214;11.350;2023-04-24T11:34:17;12.30;44.10
1025;DHT22;501;48.214;11.350;2023-04-24T11:36:43;12.40;46.30
1025;DHT22;501;48.214;11.350;2023-04-24T11:39:09;12.70;42.60
1025;DHT22;501;48.214;11.350;2023-04-24T11:41:36;12.90;45.10
1025;DHT22;501;48.214;11.350;2023-04-24T11:44:03;13.20;46.80
1025;DHT22;501;48.214;11.350;2023-04-24T11:46:31;13.50;43.40
1025;DHT22;501;48.214;11.350;2023-04-24T11:48:58;13.70;46.10
1025;DHT22;501;48.214;11.350;2023-04-24T11:51:25;14.00;43.80
1025;DHT22;501;48.214;11.350;2023-04-24T11:53:52;14.20;36.90
1025;DHT22;501;48.214;11.350;2023-04-24T11:56:18;14.20;38.20
1025;DHT22;501;48.214;11.350;2023-04-24T11:58:45;14.20;37.30
1025;DHT22;501;48.214;11.350;2023-04-24T12:01:11;14.40;39.80
1025;DHT22;501;48.214;11.350;2023-04-24T12:03:37;14.50;36.20
1025;DHT22;501;48.214;11.350;2023-04-24T12:06:06;14.50;36.20
1025;DHT22;501;48.214;11.350;2023-04-24T12:08:33;14.40;35.50
1025;DHT22;501;48.214;11.350;2023-04-24T12:11:01;14.50;35.20
1025;DHT22;501;48.214;11.350;2023-04-24T12:13:27;14.60;32.90
1025;DHT22;501;48.214;11.350;2023-04-24T12:15:52;14.60;33.30
1025;DHT22;501;48.214;11.350;2023-04-24T12:18:18;14.60;32.50
1025;DHT22;501;48.214;11.350;2023-04-24T12:20:47;14.80;33.70
1025;DHT22;501;48.214;11.350;2023-04-24T12:23:12;14.90;30.50
1025;DHT22;501;48.214;11.350;2023-04-24T12:25:38;15.00;34.20
1025;DHT22;501;48.214;11.350;2023-04-24T12:30:35;15.30;32.70
1025;DHT22;501;48.214;11.350;2023-04-24T12:33:02;15.40;30.60
1025;DHT22;501;48.214;11.350;2023-04-24T12:35:31;15.50;30.60
1025;DHT22;501;48.214;11.350;2023-04-24T12:38:12;15.50;30.10
1025;DHT22;501;48.214;11.350;2023-04-24T12:40:39;15.50;30.20
1025;DHT22;501;48.214;11.350;2023-04-24T12:45:39;15.30;27.50
1025;DHT22;501;48.214;11.350;2023-04-24T12:48:05;14.90;27.10
1025;DHT22;501;48.214;11.350;2023-04-24T12:50:30;14.60;26.90
1025;DHT22;501;48.214;11.350;2023-04-24T12:52:56;14.20;27.60
1025;DHT22;501;48.214;11.350;2023-04-24T12:55:22;14.00;29.70
1025;DHT22;501;48.214;11.350;2023-04-24T12:57:47;13.80;30.10
1025;DHT22;501;48.214;11.350;2023-04-24T13:00:13;13.70;29.70
1025;DHT22;501;48.214;11.350;2023-04-24T13:02:39;13.70;30.70
1025;DHT22;501;48.214;11.350;2023-04-24T13:05:05;13.90;32.00
1025;DHT22;501;48.214;11.350;2023-04-24T13:07:31;14.20;29.80
1025;DHT22;501;48.214;11.350;2023-04-24T13:09:57;14.50;29.50
1025;DHT22;501;48.214;11.350;2023-04-24T13:12:23;14.90;31.50
1025;DHT22;501;48.214;11.350;2023-04-24T13:14:52;15.30;30.00
1025;DHT22;501;48.214;11.350;2023-04-24T13:17:17;15.70;28.20
1025;DHT22;501;48.214;11.350;2023-04-24T13:19:44;16.20;28.00
1025;DHT22;501;48.214;11.350;2023-04-24T13:22:11;16.50;26.40
1025;DHT22;501;48.214;11.350;2023-04-24T13:24:37;16.50;25.40
1025;DHT22;501;48.214;11.350;2023-04-24T13:27:03;16.40;24.00
1025;DHT22;501;48.214;11.350;2023-04-24T13:29:29;16.40;23.80
1025;DHT22;501;48.214;11.350;2023-04-24T13:31:55;16.00;25.00
1025;DHT22;501;48.214;11.350;2023-04-24T13:34:22;15.80;25.00
1025;DHT22;501;48.214;11.350;2023-04-24T13:36:50;15.80;23.70
1025;DHT22;501;48.214;11.350;2023-04-24T13:39:16;15.90;22.50
1025;DHT22;501;48.214;11.350;2023-04-24T13:41:42;16.00;23.50
1025;DHT22;501;48.214;11.350;2023-04-24T13:44:08;16.20;24.40
1025;DHT22;501;48.214;11.350;2023-04-24T13:46:34;16.50;23.80
1025;DHT22;501;48.214;11.350;2023-04-24T13:49:00;16.40;24.40
1025;DHT22;501;48.214;11.350;2023-04-24T13:51:26;16.20;25.40
1025;DHT22;501;48.214;11.350;2023-04-24T13:53:54;15.60;24.50
1025;DHT22;501;48.214;11.350;2023-04-24T13:56:20;15.20;26.30
1025;DHT22;501;48.214;11.350;2023-04-24T13:58:46;14.90;25.60
1025;DHT22;501;48.214;11.350;2023-04-24T14:01:12;14.70;25.90
1025;DHT22;501;48.214;11.350;2023-04-24T14:03:38;14.50;26.80
1025;DHT22;501;48.214;11.350;2023-04-24T14:06:04;14.30;26.70
1025;DHT22;501;48.214;11.350;2023-04-24T14:08:30;14.50;26.60
1025;DHT22;501;48.214;11.350;2023-04-24T14:10:55;14.80;27.00
1025;DHT22;501;48.214;11.350;2023-04-24T14:13:21;14.90;26.90
1025;DHT22;501;48.214;11.350;2023-04-24T14:15:47;15.20;26.80
1025;DHT22;501;48.214;11.350;2023-04-24T14:18:12;15.50;25.40
1025;DHT22;501;48.214;11.350;2023-04-24T14:20:38;15.60;24.40
1025;DHT22;501;48.214;11.350;2023-04-24T14:23:04;15.50;23.90
1025;DHT22;501;48.214;11.350;2023-04-24T14:25:30;15.30;25.10
1025;DHT22;501;48.214;11.350;2023-04-24T14:27:55;15.30;24.00
1025;DHT22;501;48.214;11.350;2023-04-24T14:30:21;15.30;24.50
1025;DHT22;501;48.214;11.350;2023-04-24T14:32:47;15.30;24.50
1025;DHT22;501;48.214;11.350;2023-04-24T14:35:13;15.20;24.00
1025;DHT22;501;48.214;11.350;2023-04-24T14:37:39;15.10;24.10
1025;DHT22;501;48.214;11.350;2023-04-24T14:40:07;15.00;25.70
1025;DHT22;501;48.214;11.350;2023-04-24T14:42:33;15.10;25.10
1025;DHT22;501;48.214;11.350;2023-04-24T14:44:59;15.30;25.50
1025;DHT22;501;48.214;11.350;2023-04-24T14:47:25;15.50;23.70
1025;DHT22;501;48.214;11.350;2023-04-24T14:49:51;15.80;22.80
1025;DHT22;501;48.214;11.350;2023-04-24T14:52:16;16.00;22.50
1025;DHT22;501;48.214;11.350;2023-04-24T14:54:43;16.20;22.90
1025;DHT22;501;48.214;11.350;2023-04-24T14:57:09;16.40;23.10
1025;DHT22;501;48.214;11.350;2023-04-24T14:59:34;16.50;23.10
1025;DHT22;501;48.214;11.350;2023-04-24T15:02:00;16.50;22.60
1025;DHT22;501;48.214;11.350;2023-04-24T15:04:27;16.60;22.40
1025;DHT22;501;48.214;11.350;2023-04-24T15:06:54;16.70;20.90
1025;DHT22;501;48.214;11.350;2023-04-24T15:09:21;16.50;22.20
1025;DHT22;501;48.214;11.350;2023-04-24T15:11:48;16.20;21.40
1025;DHT22;501;48.214;11.350;2023-04-24T15:14:14;16.00;22.10
1025;DHT22;501;48.214;11.350;2023-04-24T15:16:40;15.70;22.00
1025;DHT22;501;48.214;11.350;2023-04-24T15:19:06;15.70;22.00
1025;DHT22;501;48.214;11.350;2023-04-24T15:21:32;15.80;21.80
1025;DHT22;501;48.214;11.350;2023-04-24T15:23:58;15.80;22.00
1025;DHT22;501;48.214;11.350;2023-04-24T15:26:24;15.60;22.10
1025;DHT22;501;48.214;11.350;2023-04-24T15:28:51;15.70;21.70
1025;DHT22;501;48.214;11.350;2023-04-24T15:31:17;15.80;20.80
1025;DHT22;501;48.214;11.350;2023-04-24T15:33:43;16.00;21.10
1025;DHT22;501;48.214;11.350;2023-04-24T15:36:09;16.10;20.50
1025;DHT22;501;48.214;11.350;2023-04-24T15:38:35;16.20;20.50
1025;DHT22;501;48.214;11.350;2023-04-24T15:41:01;16.20;20.50
1025;DHT22;501;48.214;11.350;2023-04-24T15:43:27;16.30;21.50
1025;DHT22;501;48.214;11.350;2023-04-24T15:45:56;16.40;20.70
1025;DHT22;501;48.214;11.350;2023-04-24T15:48:22;16.40;19.80
1025;DHT22;501;48.214;11.350;2023-04-24T15:50:48;16.20;20.50
1025;DHT22;501;48.214;11.350;2023-04-24T15:53:13;16.00;21.50
1025;DHT22;501;48.214;11.350;2023-04-24T15:55:49;15.90;21.10
1025;DHT22;501;48.214;11.350;2023-04-24T15:58:15;15.70;21.40
1025;DHT22;501;48.214;11.350;2023-04-24T16:00:41;15.30;21.50
1025;DHT22;501;48.214;11.350;2023-04-24T16:03:07;15.20;21.60
1025;DHT22;501;48.214;11.350;2023-04-24T16:05:33;15.20;22.20
1025;DHT22;501;48.214;11.350;2023-04-24T16:07:59;15.20;22.40
1025;DHT22;501;48.214;11.350;2023-04-24T16:10:25;15.00;22.20
1025;DHT22;501;48.214;11.350;2023-04-24T16:12:51;14.90;22.80
1025;DHT22;501;48.214;11.350;2023-04-24T16:15:18;14.90;23.20
1025;DHT22;501;48.214;11.350;2023-04-24T16:17:43;14.60;22.00
1025;DHT22;501;48.214;11.350;2023-04-24T16:20:09;14.50;23.00